sensor_id;sensor_type;location;lat;lon;timestamp;pressure;altitude;pressure_sealevel;temperature;humidity
8280;BME280;8335;42.646;23.380;2022-11-20T00:00:18;93708.78;;;13.89;100.00
8280;BME280;8335;42.646;23.380;2022-11-20T00:02:47;93720.09;;;13.87;100.00
8280;BME280;8335;42.646;23.380;2022-11-20T00:05:13;93699.25;;;13.91;100.00
8280;BME280;8335;42.646;23.380;2022-11-20T00:07:40;93719.38;;;13.96;100.00
8280;BME280;8335;42.646;23.380;2022-11-20T00:10:07;93725.44;;;13.95;100.00
8280;BME280;8335;42.646;23.380;2022-11-20T00:12:34;93720.28;;;14.06;100.00
8280;BME280;8335;42.646;23.380;2022-11-20T00:15:01;93699.94;;;14.04;100.00
8280;BME280;8335;42.646;23.380;2022-11-20T00:17:28;93697.84;;;13.98;100.00
8280;BME280;8335;42.646;23.380;2022-11-20T00:19:56;93730.97;;;14.00;100.00
8280;BME280;8335;42.646;23.380;2022-11-20T00:22:23;93696.69;;;14.02;100.00
8280;BME280;8335;42.646;23.380;2022-11-20T00:24:49;93699.56;;;14.09;100.00
8280;BME280;8335;42.646;23.380;2022-11-20T00:27:16;93712.72;;;14.16;100.00
8280;BME280;8335;42.646;23.380;2022-11-20T00:29:43;93701.28;;;14.20;100.00
8280;BME280;8335;42.646;23.380;2022-11-20T00:32:09;93690.81;;;14.23;100.00
8280;BME280;8335;42.646;23.380;2022-11-20T00:34:36;93691.25;;;14.28;100.00
8280;BME280;8335;42.646;23.380;2022-11-20T00:37:04;93679.09;;;14.52;94.10
8280;BME280;8335;42.646;23.380;2022-11-20T00:39:31;93696.56;;;14.79;92.14
8280;BME280;8335;42.646;23.380;2022-11-20T00:41:58;93708.81;;;14.97;91.68
8280;BME280;8335;42.646;23.380;2022-11-20T00:44:25;93692.81;;;15.04;91.17
8280;BME280;8335;42.646;23.380;2022-11-20T00:46:51;93713.94;;;15.18;91.33
8280;BME280;8335;42.646;23.380;2022-11-20T00:49:18;93697.25;;;15.23;89.75
8280;BME280;8335;42.646;23.380;2022-11-20T00:51:45;93706.22;;;15.29;89.20
8280;BME280;8335;42.646;23.380;2022-11-20T00:54:13;93727.94;;;15.34;89.19
8280;BME280;8335;42.646;23.380;2022-11-20T00:56:40;93732.44;;;15.42;88.16
8280;BME280;8335;42.646;23.380;2022-11-20T00:59:08;93726.66;;;15.50;87.57
8280;BME280;8335;42.646;23.380;2022-11-20T01:01:36;93714.72;;;15.60;86.56
8280;BME280;8335;42.646;23.380;2022-11-20T01:04:03;93729.06;;;15.62;86.68
8280;BME280;8335;42.646;23.380;2022-11-20T01:06:32;93717.63;;;15.66;86.67
8280;BME280;8335;42.646;23.380;2022-11-20T01:09:02;93698.44;;;15.71;86.05
8280;BME280;8335;42.646;23.380;2022-11-20T01:11:33;93700.75;;;15.74;84.83
8280;BME280;8335;42.646;23.380;2022-11-20T01:14:01;93688.47;;;15.77;84.27
8280;BME280;8335;42.646;23.380;2022-11-20T01:16:30;93693.91;;;15.84;84.24
8280;BME280;8335;42.646;23.380;2022-11-20T01:18:59;93702.69;;;15.91;84.69
8280;BME280;8335;42.646;23.380;2022-11-20T01:21:27;93707.31;;;15.97;84.04
8280;BME280;8335;42.646;23.380;2022-11-20T01:23:55;93685.59;;;16.01;83.56
8280;BME280;8335;42.646;23.380;2022-11-20T01:26:23;93675.84;;;15.95;84.09
8280;BME280;8335;42.646;23.380;2022-11-20T01:28:53;93678.13;;;15.88;84.56
8280;BME280;8335;42.646;23.380;2022-11-20T01:31:21;93676.78;;;15.94;84.38
8280;BME280;8335;42.646;23.380;2022-11-20T01:33:50;93665.81;;;15.92;84.49
8280;BME280;8335;42.646;23.380;2022-11-20T01:36:19;93679.47;;;15.92;84.62
8280;BME280;8335;42.646;23.380;2022-11-20T01:38:46;93660.16;;;15.88;84.47
8280;BME280;8335;42.646;23.380;2022-11-20T01:41:14;93651.34;;;15.81;85.01
8280;BME280;8335;42.646;23.380;2022-11-20T01:44:04;93657.59;;;15.58;87.07
8280;BME280;8335;42.646;23.380;2022-11-20T01:46:30;93663.75;;;15.46;87.96
8280;BME280;8335;42.646;23.380;2022-11-20T01:49:02;93647.69;;;15.44;88.01
8280;BME280;8335;42.646;23.380;2022-11-20T01:51:33;93645.63;;;15.37;88.17
8280;BME280;8335;42.646;23.380;2022-11-20T01:54:02;93649.66;;;15.30;89.52
8280;BME280;8335;42.646;23.380;2022-11-20T01:56:35;93642.03;;;15.19;89.56
8280;BME280;8335;42.646;23.380;2022-11-20T01:59:05;93638.59;;;15.09;89.84
8280;BME280;8335;42.646;23.380;2022-11-20T02:01:33;93643.78;;;15.19;88.21
8280;BME280;8335;42.646;23.380;2022-11-20T02:04:01;93649.47;;;15.22;88.24
8280;BME280;8335;42.646;23.380;2022-11-20T02:06:31;93658.16;;;15.31;88.03
8280;BME280;8335;42.646;23.380;2022-11-20T02:09:01;93652.50;;;15.37;87.31
8280;BME280;8335;42.646;23.380;2022-11-20T02:11:29;93658.75;;;15.44;87.41
8280;BME280;8335;42.646;23.380;2022-11-20T02:13:57;93676.72;;;15.44;87.77
8280;BME280;8335;42.646;23.380;2022-11-20T02:16:26;93670.13;;;15.51;87.28
8280;BME280;8335;42.646;23.380;2022-11-20T02:18:57;93665.16;;;15.59;85.50
8280;BME280;8335;42.646;23.380;2022-11-20T02:21:30;93650.94;;;15.55;85.35
8280;BME280;8335;42.646;23.380;2022-11-20T02:24:06;93653.13;;;15.60;85.99
8280;BME280;8335;42.646;23.380;2022-11-20T02:26:41;93670.84;;;15.63;85.49
8280;BME280;8335;42.646;23.380;2022-11-20T02:29:09;93652.94;;;15.73;82.35
8280;BME280;8335;42.646;23.380;2022-11-20T02:31:37;93640.63;;;15.66;83.97
8280;BME280;8335;42.646;23.380;2022-11-20T02:34:05;93668.53;;;15.90;80.57
8280;BME280;8335;42.646;23.380;2022-11-20T02:36:32;93666.09;;;15.99;80.59
8280;BME280;8335;42.646;23.380;2022-11-20T02:39:02;93666.94;;;16.09;80.17
8280;BME280;8335;42.646;23.380;2022-11-20T02:41:34;93664.94;;;16.22;77.65
8280;BME280;8335;42.646;23.380;2022-11-20T02:44:02;93659.66;;;16.33;77.83
8280;BME280;8335;42.646;23.380;2022-11-20T02:46:29;93673.19;;;16.55;75.25
8280;BME280;8335;42.646;23.380;2022-11-20T02:48:56;93688.38;;;16.67;74.71
8280;BME280;8335;42.646;23.380;2022-11-20T02:51:23;93671.75;;;16.81;73.69
8280;BME280;8335;42.646;23.380;2022-11-20T02:53:50;93679.03;;;16.86;73.32
8280;BME280;8335;42.646;23.380;2022-11-20T02:56:16;93702.72;;;16.99;73.16
8280;BME280;8335;42.646;23.380;2022-11-20T02:58:44;93703.53;;;17.09;73.45
8280;BME280;8335;42.646;23.380;2022-11-20T03:01:11;93701.47;;;17.22;72.80
8280;BME280;8335;42.646;23.380;2022-11-20T03:03:38;93699.28;;;17.37;72.12
8280;BME280;8335;42.646;23.380;2022-11-20T03:06:05;93713.06;;;17.46;71.77
8280;BME280;8335;42.646;23.380;2022-11-20T03:08:33;93723.31;;;17.55;71.72
8280;BME280;8335;42.646;23.380;2022-11-20T03:11:02;93716.25;;;17.67;71.41
8280;BME280;8335;42.646;23.380;2022-11-20T03:13:29;93701.34;;;17.71;71.46
8280;BME280;8335;42.646;23.380;2022-11-20T03:15:57;93713.38;;;17.70;71.17
8280;BME280;8335;42.646;23.380;2022-11-20T03:18:27;93716.78;;;17.71;71.06
8280;BME280;8335;42.646;23.380;2022-11-20T03:20:57;93715.28;;;17.78;70.80
8280;BME280;8335;42.646;23.380;2022-11-20T03:23:23;93739.66;;;17.83;70.56
8280;BME280;8335;42.646;23.380;2022-11-20T03:25:50;93728.94;;;17.88;70.59
8280;BME280;8335;42.646;23.380;2022-11-20T03:28:17;93720.56;;;17.86;70.95
8280;BME280;8335;42.646;23.380;2022-11-20T03:30:44;93712.38;;;17.91;70.72
8280;BME280;8335;42.646;23.380;2022-11-20T03:33:12;93721.22;;;17.88;70.38
8280;BME280;8335;42.646;23.380;2022-11-20T03:35:39;93739.09;;;17.90;70.10
8280;BME280;8335;42.646;23.380;2022-11-20T03:38:05;93728.38;;;17.94;69.64
8280;BME280;8335;42.646;23.380;2022-11-20T03:40:33;93735.97;;;17.96;69.72
8280;BME280;8335;42.646;23.380;2022-11-20T03:43:00;93735.41;;;17.92;69.94
8280;BME280;8335;42.646;23.380;2022-11-20T03:45:27;93729.44;;;17.92;69.93
8280;BME280;8335;42.646;23.380;2022-11-20T03:47:54;93748.28;;;18.02;69.19
8280;BME280;8335;42.646;23.380;2022-11-20T03:50:22;93744.31;;;18.07;69.12
8280;BME280;8335;42.646;23.380;2022-11-20T03:52:49;93739.03;;;18.09;69.01
8280;BME280;8335;42.646;23.380;2022-11-20T03:55:16;93730.25;;;18.02;69.52
8280;BME280;8335;42.646;23.380;2022-11-20T03:57:42;93733.63;;;18.02;69.19
8280;BME280;8335;42.646;23.380;2022-11-20T04:00:10;93741.19;;;18.04;68.83
8280;BME280;8335;42.646;23.380;2022-11-20T04:02:37;93741.06;;;18.05;68.50
8280;BME280;8335;42.646;23.380;2022-11-20T04:05:04;93741.19;;;18.04;68.65
8280;BME280;8335;42.646;23.380;2022-11-20T04:07:33;93738.34;;;18.07;67.98
8280;BME280;8335;42.646;23.380;2022-11-20T04:10:00;93740.78;;;18.08;68.08
8280;BME280;8335;42.646;23.380;2022-11-20T04:12:27;93732.91;;;18.10;67.88
8280;BME280;8335;42.646;23.380;2022-11-20T04:14:54;93737.91;;;18.11;67.93
8280;BME280;8335;42.646;23.380;2022-11-20T04:17:20;93743.88;;;18.12;68.20
8280;BME280;8335;42.646;23.380;2022-11-20T04:19:47;93746.06;;;18.07;68.26
8280;BME280;8335;42.646;23.380;2022-11-20T04:22:14;93752.56;;;18.11;68.00
8280;BME280;8335;42.646;23.380;2022-11-20T04:24:42;93733.09;;;17.99;68.64
8280;BME280;8335;42.646;23.380;2022-11-20T04:27:09;93757.22;;;17.98;68.16
8280;BME280;8335;42.646;23.380;2022-11-20T04:29:35;93767.66;;;17.96;68.30
8280;BME280;8335;42.646;23.380;2022-11-20T04:32:02;93761.06;;;17.94;68.28
8280;BME280;8335;42.646;23.380;2022-11-20T04:34:29;93756.00;;;17.92;68.53
8280;BME280;8335;42.646;23.380;2022-11-20T04:36:56;93774.28;;;17.99;68.45
8280;BME280;8335;42.646;23.380;2022-11-20T04:39:22;93773.63;;;17.97;69.44
8280;BME280;8335;42.646;23.380;2022-11-20T04:41:51;93756.97;;;17.91;69.84
8280;BME280;8335;42.646;23.380;2022-11-20T04:44:37;93766.31;;;17.92;70.44
8280;BME280;8335;42.646;23.380;2022-11-20T04:47:04;93754.97;;;17.85;70.68
8280;BME280;8335;42.646;23.380;2022-11-20T04:49:31;93748.72;;;17.87;70.91
8280;BME280;8335;42.646;23.380;2022-11-20T04:51:59;93728.75;;;17.72;71.10
8280;BME280;8335;42.646;23.380;2022-11-20T04:54:25;93746.56;;;17.83;71.05
8280;BME280;8335;42.646;23.380;2022-11-20T04:56:54;93707.88;;;17.55;71.20
8280;BME280;8335;42.646;23.380;2022-11-20T04:59:20;93735.59;;;17.81;70.99
8280;BME280;8335;42.646;23.380;2022-11-20T05:01:47;93740.75;;;17.81;71.04
8280;BME280;8335;42.646;23.380;2022-11-20T05:04:14;93734.00;;;17.80;70.99
8280;BME280;8335;42.646;23.380;2022-11-20T05:06:41;93736.81;;;17.86;70.96
8280;BME280;8335;42.646;23.380;2022-11-20T05:09:07;93735.75;;;17.79;71.77
8280;BME280;8335;42.646;23.380;2022-11-20T05:11:34;93746.63;;;17.73;72.88
8280;BME280;8335;42.646;23.380;2022-11-20T05:14:02;93741.69;;;17.70;73.28
8280;BME280;8335;42.646;23.380;2022-11-20T05:16:29;93742.25;;;17.64;73.56
8280;BME280;8335;42.646;23.380;2022-11-20T05:18:56;93733.22;;;17.60;76.58
8280;BME280;8335;42.646;23.380;2022-11-20T05:21:22;93725.53;;;17.41;79.16
8280;BME280;8335;42.646;23.380;2022-11-20T05:23:49;93725.84;;;17.18;81.49
8280;BME280;8335;42.646;23.380;2022-11-20T05:26:18;93714.91;;;16.87;84.36
8280;BME280;8335;42.646;23.380;2022-11-20T05:28:46;93714.34;;;16.84;85.37
8280;BME280;8335;42.646;23.380;2022-11-20T05:31:16;93708.56;;;16.72;86.30
8280;BME280;8335;42.646;23.380;2022-11-20T05:33:44;93702.41;;;16.63;87.02
8280;BME280;8335;42.646;23.380;2022-11-20T05:36:12;93707.97;;;16.59;87.00
8280;BME280;8335;42.646;23.380;2022-11-20T05:38:40;93719.03;;;16.40;88.12
8280;BME280;8335;42.646;23.380;2022-11-20T05:41:08;93703.47;;;16.32;88.81
8280;BME280;8335;42.646;23.380;2022-11-20T05:43:37;93657.44;;;16.00;88.84
8280;BME280;8335;42.646;23.380;2022-11-20T05:46:04;93701.56;;;16.24;88.74
8280;BME280;8335;42.646;23.380;2022-11-20T05:48:34;93696.16;;;16.17;88.56
8280;BME280;8335;42.646;23.380;2022-11-20T05:51:02;93685.34;;;16.23;88.58
8280;BME280;8335;42.646;23.380;2022-11-20T05:53:29;93681.16;;;16.22;88.71
8280;BME280;8335;42.646;23.380;2022-11-20T05:55:57;93675.34;;;16.20;88.36
8280;BME280;8335;42.646;23.380;2022-11-20T05:58:24;93671.00;;;16.21;88.33
8280;BME280;8335;42.646;23.380;2022-11-20T06:00:51;93695.78;;;16.22;88.73
8280;BME280;8335;42.646;23.380;2022-11-20T06:03:18;93690.63;;;16.22;88.75
8280;BME280;8335;42.646;23.380;2022-11-20T06:05:46;93683.75;;;16.22;88.95
8280;BME280;8335;42.646;23.380;2022-11-20T06:08:13;93676.28;;;16.19;88.69
8280;BME280;8335;42.646;23.380;2022-11-20T06:10:40;93700.91;;;16.22;89.18
8280;BME280;8335;42.646;23.380;2022-11-20T06:13:07;93698.19;;;16.23;89.15
8280;BME280;8335;42.646;23.380;2022-11-20T06:15:33;93697.09;;;16.26;88.63
8280;BME280;8335;42.646;23.380;2022-11-20T06:18:00;93700.63;;;16.25;87.71
8280;BME280;8335;42.646;23.380;2022-11-20T06:20:27;93704.69;;;16.28;87.53
8280;BME280;8335;42.646;23.380;2022-11-20T06:22:55;93692.91;;;16.25;87.00
8280;BME280;8335;42.646;23.380;2022-11-20T06:25:22;93716.84;;;16.35;86.96
8280;BME280;8335;42.646;23.380;2022-11-20T06:27:48;93716.47;;;16.40;86.69
8280;BME280;8335;42.646;23.380;2022-11-20T06:30:15;93724.03;;;16.41;86.44
8280;BME280;8335;42.646;23.380;2022-11-20T06:32:42;93727.31;;;16.43;86.53
8280;BME280;8335;42.646;23.380;2022-11-20T06:35:09;93721.59;;;16.49;86.28
8280;BME280;8335;42.646;23.380;2022-11-20T06:37:36;93705.53;;;16.47;85.62
8280;BME280;8335;42.646;23.380;2022-11-20T06:40:06;93720.81;;;16.59;85.65
8280;BME280;8335;42.646;23.380;2022-11-20T06:42:33;93726.34;;;16.64;85.05
8280;BME280;8335;42.646;23.380;2022-11-20T06:44:59;93724.59;;;16.64;84.86
8280;BME280;8335;42.646;23.380;2022-11-20T06:47:26;93703.38;;;16.62;84.22
8280;BME280;8335;42.646;23.380;2022-11-20T06:49:53;93710.53;;;16.68;83.87
8280;BME280;8335;42.646;23.380;2022-11-20T06:52:20;93719.50;;;16.74;82.73
8280;BME280;8335;42.646;23.380;2022-11-20T06:54:47;93716.94;;;16.74;82.72
8280;BME280;8335;42.646;23.380;2022-11-20T06:57:15;93737.09;;;16.88;82.87
8280;BME280;8335;42.646;23.380;2022-11-20T06:59:41;93739.81;;;16.96;83.31
8280;BME280;8335;42.646;23.380;2022-11-20T07:02:09;93747.94;;;17.01;83.13
8280;BME280;8335;42.646;23.380;2022-11-20T07:04:36;93753.72;;;17.13;83.15
8280;BME280;8335;42.646;23.380;2022-11-20T07:07:03;93759.44;;;17.17;82.24
8280;BME280;8335;42.646;23.380;2022-11-20T07:09:31;93761.56;;;17.21;82.41
8280;BME280;8335;42.646;23.380;2022-11-20T07:11:58;93763.75;;;17.26;80.22
8280;BME280;8335;42.646;23.380;2022-11-20T07:14:26;93725.84;;;17.18;79.48
8280;BME280;8335;42.646;23.380;2022-11-20T07:16:53;93747.47;;;17.35;78.86
8280;BME280;8335;42.646;23.380;2022-11-20T07:19:19;93757.50;;;17.38;78.26
8280;BME280;8335;42.646;23.380;2022-11-20T07:21:46;93757.34;;;17.40;77.92
8280;BME280;8335;42.646;23.380;2022-11-20T07:24:13;93768.56;;;17.48;77.26
8280;BME280;8335;42.646;23.380;2022-11-20T07:26:39;93753.16;;;17.39;77.10
8280;BME280;8335;42.646;23.380;2022-11-20T07:29:06;93761.16;;;17.36;77.47
8280;BME280;8335;42.646;23.380;2022-11-20T07:31:34;93757.25;;;17.31;77.42
8280;BME280;8335;42.646;23.380;2022-11-20T07:34:01;93755.06;;;17.37;77.26
8280;BME280;8335;42.646;23.380;2022-11-20T07:36:28;93758.84;;;17.42;77.17
8280;BME280;8335;42.646;23.380;2022-11-20T07:38:54;93759.38;;;17.46;77.17
8280;BME280;8335;42.646;23.380;2022-11-20T07:41:21;93755.44;;;17.51;77.15
8280;BME280;8335;42.646;23.380;2022-11-20T07:43:48;93754.91;;;17.48;76.48
8280;BME280;8335;42.646;23.380;2022-11-20T07:46:15;93761.66;;;17.49;77.12
8280;BME280;8335;42.646;23.380;2022-11-20T07:48:43;93759.91;;;17.49;76.61
8280;BME280;8335;42.646;23.380;2022-11-20T07:51:09;93753.84;;;17.41;77.28
8280;BME280;8335;42.646;23.380;2022-11-20T07:53:36;93744.50;;;17.40;77.99
8280;BME280;8335;42.646;23.380;2022-11-20T07:56:03;93753.56;;;17.44;77.50
8280;BME280;8335;42.646;23.380;2022-11-20T07:58:31;93760.88;;;17.39;78.10
8280;BME280;8335;42.646;23.380;2022-11-20T08:01:02;93762.50;;;17.40;77.97
8280;BME280;8335;42.646;23.380;2022-11-20T08:03:29;93777.28;;;17.38;78.34
8280;BME280;8335;42.646;23.380;2022-11-20T08:05:59;93762.53;;;17.30;78.37
8280;BME280;8335;42.646;23.380;2022-11-20T08:08:27;93760.34;;;17.25;78.85
8280;BME280;8335;42.646;23.380;2022-11-20T08:10:54;93765.78;;;17.22;79.10
8280;BME280;8335;42.646;23.380;2022-11-20T08:13:41;93749.13;;;17.17;79.01
8280;BME280;8335;42.646;23.380;2022-11-20T08:16:25;93749.38;;;17.33;77.93
8280;BME280;8335;42.646;23.380;2022-11-20T08:18:52;93745.56;;;17.47;77.31
8280;BME280;8335;42.646;23.380;2022-11-20T08:21:20;93747.69;;;17.61;77.06
8280;BME280;8335;42.646;23.380;2022-11-20T08:23:47;93760.69;;;17.69;75.66
8280;BME280;8335;42.646;23.380;2022-11-20T08:26:13;93750.25;;;17.80;75.10
8280;BME280;8335;42.646;23.380;2022-11-20T08:28:40;93752.50;;;17.93;74.08
8280;BME280;8335;42.646;23.380;2022-11-20T08:31:07;93764.25;;;18.05;73.59
8280;BME280;8335;42.646;23.380;2022-11-20T08:33:35;93768.41;;;18.16;72.78
8280;BME280;8335;42.646;23.380;2022-11-20T08:36:03;93769.88;;;18.19;72.23
8280;BME280;8335;42.646;23.380;2022-11-20T08:38:32;93757.00;;;18.19;71.93
8280;BME280;8335;42.646;23.380;2022-11-20T08:40:59;93767.78;;;18.32;71.75
8280;BME280;8335;42.646;23.380;2022-11-20T08:43:43;93779.16;;;18.39;70.61
8280;BME280;8335;42.646;23.380;2022-11-20T08:46:10;93774.00;;;18.39;70.67
8280;BME280;8335;42.646;23.380;2022-11-20T08:48:37;93793.94;;;18.37;71.15
8280;BME280;8335;42.646;23.380;2022-11-20T08:51:04;93803.81;;;18.41;71.16
8280;BME280;8335;42.646;23.380;2022-11-20T08:53:33;93815.66;;;18.34;71.32
8280;BME280;8335;42.646;23.380;2022-11-20T08:55:59;93818.63;;;18.39;71.60
8280;BME280;8335;42.646;23.380;2022-11-20T08:58:26;93817.41;;;18.34;72.54
8280;BME280;8335;42.646;23.380;2022-11-20T09:00:53;93819.22;;;18.24;72.94
8280;BME280;8335;42.646;23.380;2022-11-20T09:03:20;93806.50;;;18.12;72.93
8280;BME280;8335;42.646;23.380;2022-11-20T09:05:47;93815.06;;;18.13;73.45
8280;BME280;8335;42.646;23.380;2022-11-20T09:08:14;93813.84;;;18.17;73.90
8280;BME280;8335;42.646;23.380;2022-11-20T09:10:42;93812.88;;;18.18;73.68
8280;BME280;8335;42.646;23.380;2022-11-20T09:13:09;93805.16;;;18.18;73.10
8280;BME280;8335;42.646;23.380;2022-11-20T09:15:35;93810.59;;;18.15;73.76
8280;BME280;8335;42.646;23.380;2022-11-20T09:18:03;93814.53;;;18.09;75.44
8280;BME280;8335;42.646;23.380;2022-11-20T09:20:30;93795.47;;;17.93;79.09
8280;BME280;8335;42.646;23.380;2022-11-20T09:22:57;93799.25;;;17.98;80.43
8280;BME280;8335;42.646;23.380;2022-11-20T09:25:24;93810.41;;;17.89;82.01
8280;BME280;8335;42.646;23.380;2022-11-20T09:27:56;93795.25;;;17.86;83.37
8280;BME280;8335;42.646;23.380;2022-11-20T09:30:23;93801.91;;;17.59;86.42
8280;BME280;8335;42.646;23.380;2022-11-20T09:32:50;93779.97;;;17.46;86.25
8280;BME280;8335;42.646;23.380;2022-11-20T09:35:17;93793.94;;;17.43;87.99
8280;BME280;8335;42.646;23.380;2022-11-20T09:37:44;93777.41;;;17.26;87.28
8280;BME280;8335;42.646;23.380;2022-11-20T09:40:19;93770.25;;;17.20;86.67
8280;BME280;8335;42.646;23.380;2022-11-20T09:42:51;93773.50;;;17.13;86.17
8280;BME280;8335;42.646;23.380;2022-11-20T09:45:35;93778.50;;;17.14;87.62
8280;BME280;8335;42.646;23.380;2022-11-20T09:48:20;93769.16;;;17.13;86.78
8280;BME280;8335;42.646;23.380;2022-11-20T09:50:55;93776.34;;;17.00;86.51
8280;BME280;8335;42.646;23.380;2022-11-20T09:53:31;93774.97;;;17.05;86.05
8280;BME280;8335;42.646;23.380;2022-11-20T09:56:01;93764.97;;;17.02;86.38
8280;BME280;8335;42.646;23.380;2022-11-20T09:58:33;93775.25;;;16.93;87.06
8280;BME280;8335;42.646;23.380;2022-11-20T10:01:09;93750.84;;;16.68;88.58
8280;BME280;8335;42.646;23.380;2022-11-20T10:03:45;93750.16;;;16.56;88.57
8280;BME280;8335;42.646;23.380;2022-11-20T10:06:17;93734.03;;;16.35;89.27
8280;BME280;8335;42.646;23.380;2022-11-20T10:08:49;93737.13;;;16.29;90.27
8280;BME280;8335;42.646;23.380;2022-11-20T10:11:20;93753.47;;;16.18;90.08
8280;BME280;8335;42.646;23.380;2022-11-20T10:13:56;93752.00;;;16.35;89.52
8280;BME280;8335;42.646;23.380;2022-11-20T10:16:33;93733.13;;;16.55;88.76
8280;BME280;8335;42.646;23.380;2022-11-20T10:19:14;93733.94;;;16.46;88.72
8280;BME280;8335;42.646;23.380;2022-11-20T10:21:55;93741.66;;;16.65;88.33
8280;BME280;8335;42.646;23.380;2022-11-20T10:24:42;93726.06;;;16.57;89.28
8280;BME280;8335;42.646;23.380;2022-11-20T10:27:28;93722.97;;;16.54;90.34
8280;BME280;8335;42.646;23.380;2022-11-20T10:30:02;93724.19;;;16.40;90.26
8280;BME280;8335;42.646;23.380;2022-11-20T10:32:36;93728.22;;;16.42;91.38
8280;BME280;8335;42.646;23.380;2022-11-20T10:35:09;93737.03;;;16.49;90.36
8280;BME280;8335;42.646;23.380;2022-11-20T10:37:43;93738.00;;;16.58;91.17
8280;BME280;8335;42.646;23.380;2022-11-20T10:40:20;93733.25;;;16.63;91.04
8280;BME280;8335;42.646;23.380;2022-11-20T10:42:51;93732.19;;;16.66;91.15
8280;BME280;8335;42.646;23.380;2022-11-20T10:45:32;93744.78;;;16.78;90.93
8280;BME280;8335;42.646;23.380;2022-11-20T10:48:11;93748.31;;;16.77;89.33
8280;BME280;8335;42.646;23.380;2022-11-20T10:50:44;93750.78;;;16.79;90.06
8280;BME280;8335;42.646;23.380;2022-11-20T10:53:25;93741.78;;;16.54;94.12
8280;BME280;8335;42.646;23.380;2022-11-20T10:56:02;93757.19;;;16.44;94.07
8280;BME280;8335;42.646;23.380;2022-11-20T10:58:38;93782.88;;;16.44;94.92
8280;BME280;8335;42.646;23.380;2022-11-20T11:01:14;93745.00;;;16.37;95.88
8280;BME280;8335;42.646;23.380;2022-11-20T11:03:43;93745.09;;;16.26;96.83
8280;BME280;8335;42.646;23.380;2022-11-20T11:06:17;93780.53;;;16.22;96.95
8280;BME280;8335;42.646;23.380;2022-11-20T11:08:49;93779.06;;;16.29;96.78
8280;BME280;8335;42.646;23.380;2022-11-20T11:11:21;93791.91;;;16.29;97.31
8280;BME280;8335;42.646;23.380;2022-11-20T11:13:49;93791.78;;;16.31;97.69
8280;BME280;8335;42.646;23.380;2022-11-20T11:16:20;93807.19;;;16.31;97.67
8280;BME280;8335;42.646;23.380;2022-11-20T11:18:49;93810.94;;;16.27;98.23
8280;BME280;8335;42.646;23.380;2022-11-20T11:21:21;93832.00;;;16.20;100.00
8280;BME280;8335;42.646;23.380;2022-11-20T11:23:58;93837.13;;;16.11;100.00
8280;BME280;8335;42.646;23.380;2022-11-20T11:26:25;93816.69;;;16.09;100.00
8280;BME280;8335;42.646;23.380;2022-11-20T11:28:54;93787.03;;;15.95;100.00
8280;BME280;8335;42.646;23.380;2022-11-20T11:31:25;93795.00;;;15.72;100.00
8280;BME280;8335;42.646;23.380;2022-11-20T11:34:03;93808.22;;;15.46;100.00
8280;BME280;8335;42.646;23.380;2022-11-20T11:36:32;93808.22;;;15.25;98.08
8280;BME280;8335;42.646;23.380;2022-11-20T11:39:01;93819.50;;;15.02;94.62
8280;BME280;8335;42.646;23.380;2022-11-20T11:41:32;93826.75;;;14.85;92.94
8280;BME280;8335;42.646;23.380;2022-11-20T11:44:12;93820.75;;;14.75;91.48
8280;BME280;8335;42.646;23.380;2022-11-20T11:47:05;93827.97;;;14.81;86.31
8280;BME280;8335;42.646;23.380;2022-11-20T11:49:36;93820.28;;;14.70;90.26
8280;BME280;8335;42.646;23.380;2022-11-20T11:52:08;93812.66;;;14.59;90.45
8280;BME280;8335;42.646;23.380;2022-11-20T11:54:44;93811.72;;;14.49;91.71
8280;BME280;8335;42.646;23.380;2022-11-20T11:57:16;93808.78;;;14.42;94.14
8280;BME280;8335;42.646;23.380;2022-11-20T11:59:56;93802.63;;;14.33;95.04
8280;BME280;8335;42.646;23.380;2022-11-20T12:02:34;93798.69;;;14.29;95.58
8280;BME280;8335;42.646;23.380;2022-11-20T12:05:10;93778.09;;;14.20;95.24
8280;BME280;8335;42.646;23.380;2022-11-20T12:07:42;93765.41;;;14.07;93.76
8280;BME280;8335;42.646;23.380;2022-11-20T12:10:17;93772.88;;;13.99;94.17
8280;BME280;8335;42.646;23.380;2022-11-20T12:12:49;93785.19;;;14.05;93.73
8280;BME280;8335;42.646;23.380;2022-11-20T12:15:26;93789.53;;;13.93;95.04
8280;BME280;8335;42.646;23.380;2022-11-20T12:17:53;93762.28;;;13.92;95.46
8280;BME280;8335;42.646;23.380;2022-11-20T12:20:22;93799.16;;;13.78;96.44
8280;BME280;8335;42.646;23.380;2022-11-20T12:22:55;93793.00;;;13.70;96.08
8280;BME280;8335;42.646;23.380;2022-11-20T12:25:25;93799.38;;;13.64;98.05
8280;BME280;8335;42.646;23.380;2022-11-20T12:28:18;93812.84;;;13.55;97.03
8280;BME280;8335;42.646;23.380;2022-11-20T12:31:00;93803.69;;;13.53;97.78
8280;BME280;8335;42.646;23.380;2022-11-20T12:33:47;93806.34;;;13.51;97.85
8280;BME280;8335;42.646;23.380;2022-11-20T12:36:28;93809.34;;;13.45;96.98
8280;BME280;8335;42.646;23.380;2022-11-20T12:39:05;93792.97;;;13.36;96.49
8280;BME280;8335;42.646;23.380;2022-11-20T12:41:49;93764.00;;;13.36;97.17
8280;BME280;8335;42.646;23.380;2022-11-20T12:44:52;93703.34;;;13.38;96.94
8280;BME280;8335;42.646;23.380;2022-11-20T12:47:52;93695.44;;;13.41;96.12
8280;BME280;8335;42.646;23.380;2022-11-20T12:50:30;93707.88;;;13.45;94.35
8280;BME280;8335;42.646;23.380;2022-11-20T12:53:04;93694.28;;;13.45;94.24
8280;BME280;8335;42.646;23.380;2022-11-20T12:55:39;93700.91;;;13.59;94.65
8280;BME280;8335;42.646;23.380;2022-11-20T12:58:15;93691.38;;;13.61;94.10
8280;BME280;8335;42.646;23.380;2022-11-20T13:00:51;93693.56;;;13.54;96.50
8280;BME280;8335;42.646;23.380;2022-11-20T13:03:42;93676.94;;;13.48;97.29
8280;BME280;8335;42.646;23.380;2022-11-20T13:06:16;93670.56;;;13.43;98.17
8280;BME280;8335;42.646;23.380;2022-11-20T13:08:49;93664.28;;;13.47;100.00
8280;BME280;8335;42.646;23.380;2022-11-20T13:11:24;93649.19;;;13.44;100.00
8280;BME280;8335;42.646;23.380;2022-11-20T13:14:07;93644.88;;;13.44;100.00
8280;BME280;8335;42.646;23.380;2022-11-20T13:16:45;93675.22;;;13.60;99.92
8280;BME280;8335;42.646;23.380;2022-11-20T13:19:16;93675.66;;;13.76;100.00
8280;BME280;8335;42.646;23.380;2022-11-20T13:21:45;93695.19;;;13.77;100.00
8280;BME280;8335;42.646;23.380;2022-11-20T13:24:24;93698.94;;;13.73;100.00